KQA494 HKJK-HTZA
Flight info
| Callsign | KQA494 |
|---|---|
| Flight time | 0h 55m |
| Altitude | 35000 |
| Route | ATUDU1DXGABSO/06 GABSO UT913 DUNDO |
| Aircraft | B738/M-SDE2E3FGHIRWXY/LB1 |
Departure
| Time | 2026-04-26 11:23 |
|---|---|
| Airport | Jomo Kenyatta International Airport (HKJK) |
Arrival
| Time | 2026-04-26 12:18 |
|---|---|
| Airport | Abeid Amani Karume International Airport (HTZA) |
| Time | Latitude | Longitude | Altitude | Speed | Heading |
|---|---|---|---|---|---|
| 2026-04-26 10:55 | -1.33007 | 36.92314 | 5323 ft | 0 kts | 103° |
| 2026-04-26 11:16 | -1.33007 | 36.92313 | 5323 ft | 2 kts | 103° |
| 2026-04-26 11:16 | -1.33001 | 36.92288 | 5323 ft | 4 kts | 98° |
| 2026-04-26 11:16 | -1.32999 | 36.92261 | 5323 ft | 4 kts | 89° |
| 2026-04-26 11:17 | -1.33002 | 36.92235 | 5323 ft | 4 kts | 67° |
| 2026-04-26 11:17 | -1.33015 | 36.92218 | 5314 ft | 2 kts | 11° |
| 2026-04-26 11:17 | -1.33021 | 36.92217 | 5323 ft | 0 kts | 10° |
| 2026-04-26 11:20 | -1.33020 | 36.92217 | 5318 ft | 1 kts | 10° |
| 2026-04-26 11:20 | -1.32996 | 36.92222 | 5316 ft | 10 kts | 12° |
| 2026-04-26 11:20 | -1.32870 | 36.92257 | 5316 ft | 18 kts | 341° |
| 2026-04-26 11:20 | -1.32791 | 36.92154 | 5326 ft | 21 kts | 246° |
| 2026-04-26 11:21 | -1.32883 | 36.92025 | 5327 ft | 25 kts | 234° |
| 2026-04-26 11:21 | -1.32978 | 36.91896 | 5333 ft | 19 kts | 233° |
| 2026-04-26 11:21 | -1.32957 | 36.91789 | 5338 ft | 19 kts | 325° |
| 2026-04-26 11:21 | -1.32865 | 36.91725 | 5335 ft | 15 kts | 324° |
| 2026-04-26 11:22 | -1.32781 | 36.91665 | 5360 ft | 15 kts | 324° |
| 2026-04-26 11:22 | -1.32705 | 36.91712 | 5333 ft | 15 kts | 54° |
| 2026-04-26 11:22 | -1.32558 | 36.91912 | 5321 ft | 68 kts | 54° |
| 2026-04-26 11:22 | -1.32143 | 36.92480 | 5318 ft | 132 kts | 54° |
| 2026-04-26 11:23 | -1.31491 | 36.93369 | 5314 ft | 184 kts | 54° |
| 2026-04-26 11:23 | -1.30695 | 36.94456 | 5845 ft | 194 kts | 56° |
| 2026-04-26 11:23 | -1.30012 | 36.95586 | 6824 ft | 185 kts | 75° |
| 2026-04-26 11:23 | -1.29864 | 36.96804 | 7595 ft | 184 kts | 88° |
| 2026-04-26 11:24 | -1.29758 | 36.98182 | 7844 ft | 211 kts | 86° |
| 2026-04-26 11:24 | -1.29623 | 36.99732 | 8022 ft | 235 kts | 85° |
| 2026-04-26 11:24 | -1.29519 | 37.00839 | 8160 ft | 248 kts | 85° |
| 2026-04-26 11:24 | -1.29275 | 37.03215 | 8713 ft | 263 kts | 85° |
| 2026-04-26 11:25 | -1.29070 | 37.05092 | 9009 ft | 282 kts | 84° |
| 2026-04-26 11:25 | -1.28841 | 37.07069 | 9669 ft | 289 kts | 84° |
| 2026-04-26 11:25 | -1.28603 | 37.09072 | 10482 ft | 292 kts | 84° |
| 2026-04-26 11:25 | -1.28374 | 37.11139 | 10934 ft | 308 kts | 88° |
| 2026-04-26 11:26 | -1.28722 | 37.13295 | 11171 ft | 328 kts | 113° |
| 2026-04-26 11:26 | -1.30085 | 37.15166 | 11308 ft | 352 kts | 142° |
| 2026-04-26 11:26 | -1.32255 | 37.16210 | 12214 ft | 349 kts | 163° |
| 2026-04-26 11:26 | -1.34642 | 37.16751 | 12897 ft | 354 kts | 169° |
| 2026-04-26 11:27 | -1.37098 | 37.17173 | 13447 ft | 362 kts | 170° |
| 2026-04-26 11:27 | -1.39604 | 37.17570 | 14110 ft | 367 kts | 170° |
| 2026-04-26 11:27 | -1.42121 | 37.17969 | 14785 ft | 368 kts | 169° |
| 2026-04-26 11:27 | -1.44668 | 37.18417 | 15446 ft | 373 kts | 168° |
| 2026-04-26 11:28 | -1.47232 | 37.18863 | 16086 ft | 376 kts | 169° |
| 2026-04-26 11:28 | -1.49827 | 37.19308 | 16616 ft | 381 kts | 169° |
| 2026-04-26 11:28 | -1.52455 | 37.19762 | 17175 ft | 385 kts | 169° |
| 2026-04-26 11:28 | -1.55116 | 37.20231 | 17761 ft | 391 kts | 169° |
| 2026-04-26 11:29 | -1.57804 | 37.20683 | 18484 ft | 392 kts | 167° |
| 2026-04-26 11:29 | -1.60434 | 37.21415 | 18867 ft | 395 kts | 157° |
| 2026-04-26 11:29 | -1.62969 | 37.22484 | 19164 ft | 395 kts | 154° |
| 2026-04-26 11:29 | -1.65491 | 37.23628 | 19424 ft | 401 kts | 154° |
| 2026-04-26 11:30 | -1.68036 | 37.24799 | 19900 ft | 403 kts | 154° |
| 2026-04-26 11:30 | -1.69751 | 37.25601 | 20258 ft | 404 kts | 153° |
| 2026-04-26 11:30 | -1.73114 | 37.27222 | 20911 ft | 407 kts | 152° |
| 2026-04-26 11:30 | -1.75664 | 37.28468 | 21354 ft | 410 kts | 152° |
| 2026-04-26 11:31 | -1.78237 | 37.29728 | 21792 ft | 413 kts | 152° |
| 2026-04-26 11:31 | -1.80830 | 37.30996 | 22236 ft | 416 kts | 152° |
| 2026-04-26 11:31 | -1.83441 | 37.32270 | 22660 ft | 419 kts | 152° |
| 2026-04-26 11:31 | -1.86078 | 37.33554 | 23058 ft | 423 kts | 152° |
| 2026-04-26 11:32 | -1.88734 | 37.34845 | 23456 ft | 426 kts | 152° |
| 2026-04-26 11:32 | -1.91408 | 37.36144 | 23843 ft | 429 kts | 152° |
| 2026-04-26 11:32 | -1.94096 | 37.37449 | 24180 ft | 431 kts | 152° |
| 2026-04-26 11:32 | -1.96798 | 37.38760 | 24516 ft | 432 kts | 152° |
| 2026-04-26 11:33 | -1.99509 | 37.40076 | 24858 ft | 434 kts | 152° |
| 2026-04-26 11:33 | -2.02233 | 37.41398 | 25201 ft | 436 kts | 152° |
| 2026-04-26 11:33 | -2.04045 | 37.42278 | 25401 ft | 438 kts | 152° |
| 2026-04-26 11:33 | -2.07724 | 37.44063 | 25827 ft | 441 kts | 152° |
| 2026-04-26 11:34 | -2.10485 | 37.45404 | 26143 ft | 442 kts | 152° |
| 2026-04-26 11:34 | -2.13256 | 37.46749 | 26456 ft | 444 kts | 152° |
| 2026-04-26 11:34 | -2.16046 | 37.48104 | 26759 ft | 447 kts | 152° |
| 2026-04-26 11:34 | -2.18847 | 37.49464 | 27057 ft | 448 kts | 152° |
| 2026-04-26 11:35 | -2.21656 | 37.50828 | 27361 ft | 450 kts | 152° |
| 2026-04-26 11:35 | -2.24480 | 37.52200 | 27647 ft | 452 kts | 152° |
| 2026-04-26 11:35 | -2.27313 | 37.53575 | 27937 ft | 454 kts | 152° |
| 2026-04-26 11:35 | -2.29200 | 37.54492 | 28122 ft | 455 kts | 152° |
| 2026-04-26 11:36 | -2.33024 | 37.56349 | 28470 ft | 458 kts | 152° |
| 2026-04-26 11:36 | -2.35901 | 37.57747 | 28719 ft | 461 kts | 152° |
| 2026-04-26 11:36 | -2.38792 | 37.59151 | 28977 ft | 463 kts | 152° |
| 2026-04-26 11:36 | -2.41692 | 37.60559 | 29242 ft | 464 kts | 152° |
| 2026-04-26 11:37 | -2.44604 | 37.61974 | 29474 ft | 467 kts | 152° |
| 2026-04-26 11:37 | -2.47529 | 37.63395 | 29703 ft | 469 kts | 152° |
| 2026-04-26 11:37 | -2.50465 | 37.64821 | 29956 ft | 470 kts | 152° |
| 2026-04-26 11:37 | -2.53417 | 37.66255 | 30183 ft | 472 kts | 152° |
| 2026-04-26 11:38 | -2.56371 | 37.67691 | 30387 ft | 473 kts | 152° |
| 2026-04-26 11:38 | -2.59333 | 37.69130 | 30600 ft | 474 kts | 152° |
| 2026-04-26 11:38 | -2.62300 | 37.70571 | 30851 ft | 474 kts | 152° |
| 2026-04-26 11:38 | -2.65259 | 37.72008 | 31172 ft | 472 kts | 152° |
| 2026-04-26 11:39 | -2.68160 | 37.73417 | 31562 ft | 468 kts | 152° |
| 2026-04-26 11:39 | -2.71081 | 37.74837 | 31901 ft | 466 kts | 152° |
| 2026-04-26 11:39 | -2.73997 | 37.76254 | 32184 ft | 466 kts | 152° |
| 2026-04-26 11:39 | -2.76909 | 37.77670 | 32470 ft | 465 kts | 152° |
| 2026-04-26 11:40 | -2.79818 | 37.79084 | 32784 ft | 464 kts | 152° |
| 2026-04-26 11:40 | -2.82718 | 37.80493 | 33134 ft | 462 kts | 152° |
| 2026-04-26 11:40 | -2.85610 | 37.81899 | 33442 ft | 461 kts | 152° |
| 2026-04-26 11:40 | -2.88493 | 37.83301 | 33730 ft | 461 kts | 152° |
| 2026-04-26 11:41 | -2.91377 | 37.84703 | 34047 ft | 460 kts | 152° |
| 2026-04-26 11:42 | -3.10558 | 37.94031 | 35006 ft | 462 kts | 152° |
| 2026-04-26 11:43 | -3.16327 | 37.96837 | 35010 ft | 460 kts | 152° |
| 2026-04-26 11:43 | -3.22085 | 37.99638 | 35008 ft | 459 kts | 152° |
| 2026-04-26 11:44 | -3.27728 | 38.02383 | 34999 ft | 459 kts | 152° |
| 2026-04-26 11:44 | -3.33461 | 38.05173 | 34998 ft | 458 kts | 152° |
| 2026-04-26 11:45 | -3.39194 | 38.07964 | 34990 ft | 458 kts | 152° |
| 2026-04-26 11:45 | -3.44922 | 38.10752 | 34991 ft | 457 kts | 152° |
| 2026-04-26 11:46 | -3.50643 | 38.13537 | 34982 ft | 457 kts | 152° |
| 2026-04-26 11:46 | -3.56365 | 38.16323 | 34984 ft | 458 kts | 152° |
| 2026-04-26 11:47 | -3.62095 | 38.19113 | 34970 ft | 458 kts | 152° |
| 2026-04-26 11:47 | -3.67826 | 38.21904 | 34974 ft | 458 kts | 152° |
| 2026-04-26 11:48 | -3.73566 | 38.24700 | 34961 ft | 459 kts | 152° |
| 2026-04-26 11:48 | -3.79305 | 38.27495 | 34960 ft | 459 kts | 152° |
| 2026-04-26 11:49 | -3.85056 | 38.30298 | 34951 ft | 460 kts | 152° |
| 2026-04-26 11:49 | -3.90815 | 38.33104 | 34951 ft | 460 kts | 152° |
| 2026-04-26 11:50 | -3.96573 | 38.35910 | 34939 ft | 461 kts | 152° |
| 2026-04-26 11:50 | -4.02320 | 38.38711 | 34938 ft | 461 kts | 152° |
| 2026-04-26 11:51 | -4.08083 | 38.41521 | 34939 ft | 460 kts | 152° |
| 2026-04-26 11:51 | -4.13841 | 38.44328 | 34953 ft | 460 kts | 152° |
| 2026-04-26 11:52 | -4.19659 | 38.47007 | 34848 ft | 456 kts | 155° |
| 2026-04-26 11:52 | -4.22575 | 38.48217 | 34380 ft | 452 kts | 156° |
| 2026-04-26 11:52 | -4.25461 | 38.49390 | 33668 ft | 456 kts | 156° |
| 2026-04-26 11:53 | -4.28421 | 38.50593 | 32766 ft | 463 kts | 156° |
| 2026-04-26 11:53 | -4.31408 | 38.51816 | 32088 ft | 464 kts | 156° |
| 2026-04-26 11:53 | -4.34374 | 38.53040 | 31613 ft | 456 kts | 156° |
| 2026-04-26 11:54 | -4.40135 | 38.55437 | 30233 ft | 445 kts | 156° |
| 2026-04-26 11:54 | -4.42997 | 38.56636 | 29466 ft | 447 kts | 156° |
| 2026-04-26 11:54 | -4.45840 | 38.57827 | 29223 ft | 439 kts | 156° |
| 2026-04-26 11:54 | -4.48620 | 38.58992 | 29080 ft | 427 kts | 156° |
| 2026-04-26 11:55 | -4.51328 | 38.60126 | 28983 ft | 416 kts | 156° |
| 2026-04-26 11:55 | -4.56528 | 38.62378 | 28702 ft | 402 kts | 153° |
| 2026-04-26 11:55 | -4.59054 | 38.63494 | 28337 ft | 392 kts | 156° |
| 2026-04-26 11:56 | -4.61562 | 38.64523 | 27712 ft | 389 kts | 156° |
| 2026-04-26 11:56 | -4.64108 | 38.65556 | 26497 ft | 402 kts | 156° |
| 2026-04-26 11:56 | -4.66741 | 38.66631 | 25355 ft | 413 kts | 156° |
| 2026-04-26 11:56 | -4.69392 | 38.67721 | 24888 ft | 409 kts | 155° |
| 2026-04-26 11:57 | -4.72024 | 38.68811 | 24392 ft | 409 kts | 156° |
| 2026-04-26 11:57 | -4.74651 | 38.69905 | 23918 ft | 408 kts | 155° |
| 2026-04-26 11:57 | -4.77269 | 38.71001 | 23460 ft | 407 kts | 156° |
| 2026-04-26 11:57 | -4.79875 | 38.72092 | 22928 ft | 405 kts | 156° |
| 2026-04-26 11:58 | -4.82461 | 38.73175 | 22464 ft | 401 kts | 156° |
| 2026-04-26 11:58 | -4.85028 | 38.74251 | 21998 ft | 398 kts | 156° |
| 2026-04-26 11:58 | -4.87567 | 38.75316 | 21538 ft | 394 kts | 156° |
| 2026-04-26 11:58 | -4.90084 | 38.76373 | 21104 ft | 391 kts | 155° |
| 2026-04-26 11:59 | -4.92584 | 38.77421 | 20668 ft | 388 kts | 156° |
| 2026-04-26 11:59 | -4.95082 | 38.78448 | 20236 ft | 386 kts | 156° |
| 2026-04-26 11:59 | -4.97553 | 38.79493 | 19797 ft | 383 kts | 155° |
| 2026-04-26 11:59 | -5.00000 | 38.80539 | 19335 ft | 383 kts | 156° |
| 2026-04-26 12:00 | -5.02441 | 38.81564 | 18924 ft | 379 kts | 156° |
| 2026-04-26 12:00 | -5.04048 | 38.82236 | 18626 ft | 378 kts | 156° |
| 2026-04-26 12:00 | -5.07271 | 38.83582 | 18017 ft | 373 kts | 156° |
| 2026-04-26 12:00 | -5.09608 | 38.84574 | 17566 ft | 368 kts | 156° |
| 2026-04-26 12:01 | -5.11984 | 38.85577 | 17123 ft | 364 kts | 156° |
| 2026-04-26 12:01 | -5.14284 | 38.86538 | 16709 ft | 363 kts | 157° |
| 2026-04-26 12:01 | -5.16611 | 38.87504 | 16279 ft | 361 kts | 157° |
| 2026-04-26 12:01 | -5.18914 | 38.88467 | 15882 ft | 356 kts | 156° |
| 2026-04-26 12:02 | -5.21188 | 38.89422 | 15471 ft | 352 kts | 157° |
| 2026-04-26 12:02 | -5.23439 | 38.90367 | 15068 ft | 350 kts | 157° |
| 2026-04-26 12:02 | -5.25685 | 38.91290 | 14675 ft | 348 kts | 158° |
| 2026-04-26 12:02 | -5.27912 | 38.92213 | 14277 ft | 345 kts | 157° |
| 2026-04-26 12:03 | -5.30107 | 38.93145 | 13890 ft | 341 kts | 157° |
| 2026-04-26 12:03 | -5.32283 | 38.94066 | 13461 ft | 338 kts | 157° |
| 2026-04-26 12:03 | -5.34445 | 38.94980 | 13029 ft | 335 kts | 156° |
| 2026-04-26 12:03 | -5.36587 | 38.95883 | 12609 ft | 333 kts | 156° |
| 2026-04-26 12:04 | -5.38716 | 38.96780 | 12223 ft | 330 kts | 156° |
| 2026-04-26 12:04 | -5.40824 | 38.97667 | 11834 ft | 328 kts | 156° |
| 2026-04-26 12:04 | -5.42919 | 38.98548 | 11454 ft | 325 kts | 156° |
| 2026-04-26 12:04 | -5.45000 | 38.99422 | 11070 ft | 323 kts | 156° |
| 2026-04-26 12:05 | -5.46951 | 39.00242 | 10712 ft | 321 kts | 156° |
| 2026-04-26 12:05 | -5.48997 | 39.01102 | 10452 ft | 315 kts | 156° |
| 2026-04-26 12:05 | -5.50984 | 39.01937 | 10300 ft | 305 kts | 156° |
| 2026-04-26 12:05 | -5.52912 | 39.02747 | 10175 ft | 296 kts | 156° |
| 2026-04-26 12:06 | -5.54781 | 39.03532 | 10047 ft | 286 kts | 156° |
| 2026-04-26 12:06 | -5.56589 | 39.04290 | 9949 ft | 277 kts | 156° |
| 2026-04-26 12:06 | -5.58354 | 39.05034 | 9793 ft | 275 kts | 156° |
| 2026-04-26 12:06 | -5.60114 | 39.05775 | 9393 ft | 270 kts | 156° |
| 2026-04-26 12:07 | -5.61847 | 39.06503 | 9062 ft | 269 kts | 156° |
| 2026-04-26 12:07 | -5.63569 | 39.07228 | 8770 ft | 268 kts | 156° |
| 2026-04-26 12:07 | -5.65287 | 39.07952 | 8488 ft | 267 kts | 156° |
| 2026-04-26 12:07 | -5.66997 | 39.08671 | 8207 ft | 266 kts | 156° |
| 2026-04-26 12:08 | -5.68700 | 39.09387 | 7935 ft | 265 kts | 156° |
| 2026-04-26 12:08 | -5.70397 | 39.10100 | 7662 ft | 264 kts | 156° |
| 2026-04-26 12:08 | -5.72086 | 39.10811 | 7386 ft | 263 kts | 156° |
| 2026-04-26 12:08 | -5.73768 | 39.11519 | 7118 ft | 261 kts | 156° |
| 2026-04-26 12:09 | -5.75442 | 39.12222 | 6846 ft | 260 kts | 156° |
| 2026-04-26 12:09 | -5.77112 | 39.12925 | 6578 ft | 260 kts | 156° |
| 2026-04-26 12:09 | -5.78775 | 39.13625 | 6304 ft | 259 kts | 156° |
| 2026-04-26 12:09 | -5.80432 | 39.14322 | 6018 ft | 258 kts | 156° |
| 2026-04-26 12:10 | -5.82081 | 39.15017 | 5751 ft | 256 kts | 157° |
| 2026-04-26 12:10 | -5.83722 | 39.15708 | 5485 ft | 255 kts | 157° |
| 2026-04-26 12:10 | -5.85344 | 39.16388 | 5294 ft | 250 kts | 157° |
| 2026-04-26 12:10 | -5.86946 | 39.17062 | 5042 ft | 249 kts | 157° |
| 2026-04-26 12:11 | -5.88540 | 39.17731 | 4789 ft | 247 kts | 157° |
| 2026-04-26 12:11 | -5.90098 | 39.18387 | 4526 ft | 245 kts | 157° |
| 2026-04-26 12:11 | -5.91670 | 39.19050 | 4265 ft | 245 kts | 157° |
| 2026-04-26 12:11 | -5.93274 | 39.19589 | 4068 ft | 241 kts | 169° |
| 2026-04-26 12:12 | -5.94909 | 39.19791 | 3961 ft | 233 kts | 174° |
| 2026-04-26 12:12 | -5.96487 | 39.19928 | 3877 ft | 221 kts | 174° |
| 2026-04-26 12:12 | -5.97968 | 39.20064 | 3781 ft | 207 kts | 174° |
| 2026-04-26 12:12 | -5.98916 | 39.20155 | 3720 ft | 198 kts | 174° |
| 2026-04-26 12:13 | -6.00630 | 39.20324 | 3600 ft | 178 kts | 174° |
| 2026-04-26 12:13 | -6.01825 | 39.20446 | 3442 ft | 170 kts | 174° |
| 2026-04-26 12:13 | -6.02977 | 39.20561 | 3410 ft | 161 kts | 175° |
| 2026-04-26 12:13 | -6.04111 | 39.20671 | 3244 ft | 167 kts | 174° |
| 2026-04-26 12:14 | -6.05287 | 39.20790 | 3038 ft | 172 kts | 174° |
| 2026-04-26 12:14 | -6.06474 | 39.20915 | 2824 ft | 171 kts | 173° |
| 2026-04-26 12:14 | -6.07641 | 39.21044 | 2596 ft | 165 kts | 175° |
| 2026-04-26 12:14 | -6.08752 | 39.21134 | 2407 ft | 158 kts | 175° |
| 2026-04-26 12:15 | -6.09857 | 39.21247 | 2200 ft | 159 kts | 174° |
| 2026-04-26 12:15 | -6.10954 | 39.21360 | 1987 ft | 156 kts | 174° |
| 2026-04-26 12:15 | -6.12002 | 39.21466 | 1804 ft | 145 kts | 173° |
| 2026-04-26 12:15 | -6.12953 | 39.21562 | 1643 ft | 132 kts | 173° |
| 2026-04-26 12:16 | -6.13880 | 39.21654 | 1431 ft | 133 kts | 174° |
| 2026-04-26 12:16 | -6.14805 | 39.21747 | 1269 ft | 134 kts | 173° |
| 2026-04-26 12:16 | -6.15736 | 39.21842 | 1106 ft | 134 kts | 173° |
| 2026-04-26 12:16 | -6.16648 | 39.21925 | 1044 ft | 132 kts | 173° |
| 2026-04-26 12:17 | -6.17575 | 39.22018 | 841 ft | 132 kts | 172° |
| 2026-04-26 12:17 | -6.18493 | 39.22109 | 656 ft | 131 kts | 173° |
| 2026-04-26 12:17 | -6.19398 | 39.22201 | 426 ft | 130 kts | 171° |
| 2026-04-26 12:17 | -6.20319 | 39.22301 | 234 ft | 135 kts | 172° |
| 2026-04-26 12:18 | -6.21252 | 39.22394 | 90 ft | 133 kts | 173° |
| 2026-04-26 12:18 | -6.22105 | 39.22481 | 53 ft | 107 kts | 174° |
| 2026-04-26 12:18 | -6.22625 | 39.22533 | 53 ft | 44 kts | 172° |
| 2026-04-26 12:18 | -6.22796 | 39.22550 | 55 ft | 20 kts | 174° |
| 2026-04-26 12:19 | -6.22947 | 39.22562 | 49 ft | 23 kts | 192° |
| 2026-04-26 12:19 | -6.22995 | 39.22462 | 55 ft | 8 kts | 265° |
| 2026-04-26 12:19 | -6.22998 | 39.22410 | 55 ft | 7 kts | 283° |
| 2026-04-26 12:19 | -6.22948 | 39.22393 | 55 ft | 9 kts | 355° |
| 2026-04-26 12:20 | -6.22886 | 39.22387 | 50 ft | 9 kts | 355° |
| 2026-04-26 12:20 | -6.22826 | 39.22381 | 52 ft | 9 kts | 355° |
| 2026-04-26 12:20 | -6.22733 | 39.22373 | 56 ft | 18 kts | 355° |
| 2026-04-26 12:20 | -6.22588 | 39.22359 | 55 ft | 17 kts | 353° |
| 2026-04-26 12:21 | -6.22491 | 39.22347 | 52 ft | 12 kts | 354° |
| 2026-04-26 12:21 | -6.22416 | 39.22341 | 57 ft | 10 kts | 354° |
| 2026-04-26 12:21 | -6.22369 | 39.22336 | 57 ft | 1 kts | 353° |
| 2026-04-26 12:21 | -6.22364 | 39.22332 | 57 ft | 1 kts | 315° |
| 2026-04-26 12:22 | -6.22400 | 39.22317 | 52 ft | 11 kts | 186° |
| 2026-04-26 12:22 | -6.22428 | 39.22290 | 52 ft | 5 kts | 257° |
| 2026-04-26 12:22 | -6.22402 | 39.22250 | 54 ft | 11 kts | 11° |
| 2026-04-26 12:22 | -6.22345 | 39.22252 | 53 ft | 1 kts | 354° |
| 2026-04-26 12:23 | -6.22333 | 39.22251 | 57 ft | 0 kts | 354° |